Time;durP1;ratioP1;P1;durP2;ratioP2;P2;SDS_P1;SDS_P2;PMS_P1;PMS_P2;Temp;Humidity;BMP_temperature;BMP_pressure;BME280_temperature;BME280_humidity;BME280_pressure;Samples;Min_cycle;Max_cycle;Signal;HPM_P1;HPM_P2
2022/03/13 00:00:37;;;;;;;9.13;8.02;;;;;;;19.38;33.22;102221.31;5056867;28;20056;-84
2022/03/13 00:03:09;;;;;;;9.73;8.50;;;;;;;19.37;33.19;102220.44;5057133;28;20044;-84
2022/03/13 00:05:39;;;;;;;9.25;8.27;;;;;;;19.37;32.96;102217.75;5058779;28;20045;-85
2022/03/13 00:08:23;;;;;;;10.57;8.27;;;;;;;19.39;33.20;102231.06;5058228;28;20045;-85
2022/03/13 00:11:01;;;;;;;9.02;8.18;;;;;;;19.38;33.73;102213.25;5058619;28;20465;-85
2022/03/13 00:13:32;;;;;;;9.27;8.15;;;;;;;19.37;33.14;102217.75;5057381;28;20052;-84
2022/03/13 00:16:08;;;;;;;8.95;8.05;;;;;;;19.38;33.28;102221.31;5057620;28;20094;-84
2022/03/13 00:18:41;;;;;;;9.38;8.18;;;;;;;19.39;33.22;102233.75;5055730;28;20064;-84
2022/03/13 00:21:10;;;;;;;8.85;7.72;;;;;;;19.37;33.17;102230.31;5057367;28;20384;-83
2022/03/13 00:23:38;;;;;;;10.00;8.80;;;;;;;19.37;33.17;102231.19;5057024;28;20045;-84
2022/03/13 00:26:06;;;;;;;9.93;8.45;;;;;;;19.37;33.06;102227.63;5055275;28;20041;-84
2022/03/13 00:28:38;;;;;;;11.00;9.77;;;;;;;19.37;33.04;102233.00;5056438;28;20484;-84
2022/03/13 00:31:06;;;;;;;10.32;9.27;;;;;;;19.37;32.94;102233.00;5057695;28;20041;-84
2022/03/13 00:33:34;;;;;;;10.70;8.90;;;;;;;19.37;32.97;102231.19;5055949;28;20060;-85
2022/03/13 00:36:01;;;;;;;9.23;8.07;;;;;;;19.37;32.98;102233.00;5056324;28;20049;-84
2022/03/13 00:38:29;;;;;;;11.13;9.68;;;;;;;19.38;32.86;102230.22;5058407;28;20044;-82
2022/03/13 00:40:58;;;;;;;11.50;8.75;;;;;;;19.36;32.82;102226.75;5057589;28;20063;-82
2022/03/13 00:43:28;;;;;;;9.77;8.77;;;;;;;19.37;32.68;102222.28;5057836;28;20048;-82
2022/03/13 00:45:56;;;;;;;10.75;9.10;;;;;;;19.37;32.72;102216.91;5056043;28;20045;-82
2022/03/13 00:48:26;;;;;;;10.23;9.10;;;;;;;19.36;32.87;102221.38;5055342;28;20588;-84
2022/03/13 00:50:55;;;;;;;9.90;8.90;;;;;;;19.37;32.79;102217.75;5057645;28;20048;-83
2022/03/13 00:53:22;;;;;;;10.70;8.70;;;;;;;19.37;32.93;102207.00;5057301;28;20041;-84
2022/03/13 00:55:49;;;;;;;10.05;9.05;;;;;;;19.38;32.64;102218.63;5055633;28;20053;-84
2022/03/13 00:58:17;;;;;;;9.07;8.18;;;;;;;19.37;32.91;102211.53;5055687;28;20045;-83
2022/03/13 01:00:44;;;;;;;11.00;9.32;;;;;;;19.38;32.65;102222.16;5056813;28;20041;-84
2022/03/13 01:03:37;;;;;;;10.02;8.73;;;;;;;19.40;32.87;102232.78;5055023;28;20064;-84
2022/03/13 01:06:06;;;;;;;9.88;8.93;;;;;;;19.37;32.87;102220.44;5055905;28;20052;-84
2022/03/13 01:08:33;;;;;;;11.38;9.05;;;;;;;19.38;32.74;102221.31;5055303;28;20044;-84
2022/03/13 01:11:02;;;;;;;10.70;9.00;;;;;;;19.39;32.71;102223.03;5055456;28;20089;-85
2022/03/13 01:13:30;;;;;;;9.95;8.95;;;;;;;19.39;32.86;102220.34;5057449;28;20068;-85
2022/03/13 01:16:23;;;;;;;10.10;9.10;;;;;;;19.39;32.97;102218.50;5057389;28;20045;-84
2022/03/13 01:18:53;;;;;;;11.68;8.93;;;;;;;19.39;32.90;102226.56;5056372;28;20419;-84
2022/03/13 01:21:20;;;;;;;10.30;9.20;;;;;;;19.38;32.85;102219.47;5055993;28;20060;-83
2022/03/13 01:24:14;;;;;;;11.63;9.82;;;;;;;19.40;32.83;102216.69;5057509;28;20037;-85
2022/03/13 01:26:42;;;;;;;;;;;;;;;19.39;32.86;102214.97;5055245;28;20057;-85
2022/03/13 01:29:11;;;;;;;11.63;9.50;;;;;;;19.40;32.85;102214.00;5057435;28;19920;-85
2022/03/13 01:31:48;;;;;;;10.43;8.65;;;;;;;19.41;33.02;102210.38;5039152;28;20057;-85
2022/03/13 01:34:38;;;;;;;11.15;9.57;;;;;;;19.40;32.50;102216.69;5055440;28;20053;-85
2022/03/13 01:37:08;;;;;;;9.73;8.73;;;;;;;19.39;32.65;102213.13;5056541;28;20049;-85
2022/03/13 01:39:36;;;;;;;11.27;9.30;;;;;;;19.40;32.54;102205.94;5055323;28;20068;-85
2022/03/13 01:42:04;;;;;;;10.18;9.15;;;;;;;19.39;32.38;102209.59;5054987;28;20044;-84
2022/03/13 01:44:31;;;;;;;17.77;9.35;;;;;;;19.38;32.52;102213.25;5055805;28;20053;-84
2022/03/13 01:47:01;;;;;;;10.50;9.23;;;;;;;19.39;32.52;102206.91;5055687;28;20151;-84
2022/03/13 01:49:28;;;;;;;11.95;10.07;;;;;;;19.37;32.50;102204.31;5056668;28;20041;-84
2022/03/13 01:51:57;;;;;;;11.80;9.55;;;;;;;19.36;32.52;102196.34;5056685;28;20049;-84
2022/03/13 01:54:24;;;;;;;11.00;9.60;;;;;;;19.37;32.45;102195.41;5055744;28;20052;-84
2022/03/13 01:56:53;;;;;;;9.45;8.50;;;;;;;19.37;32.44;102200.78;5055411;28;20052;-85
2022/03/13 01:59:20;;;;;;;10.50;9.40;;;;;;;19.37;32.38;102203.47;5055084;28;20057;-84
2022/03/13 02:01:48;;;;;;;10.68;9.68;;;;;;;19.37;32.58;102201.66;5056730;28;20392;-84
2022/03/13 02:04:23;;;;;;;11.25;9.15;;;;;;;19.37;32.52;102188.22;5056001;28;20052;-84
2022/03/13 02:06:53;;;;;;;11.00;9.48;;;;;;;19.36;32.75;102189.16;5055862;28;20049;-83
2022/03/13 02:09:20;;;;;;;10.40;9.30;;;;;;;19.36;32.65;102181.09;5056042;28;20041;-83
2022/03/13 02:11:50;;;;;;;10.82;9.23;;;;;;;19.37;32.51;102184.69;5056797;28;20056;-83
2022/03/13 02:14:21;;;;;;;10.60;9.27;;;;;;;19.37;32.53;102179.31;5055958;28;20056;-82
2022/03/13 02:16:50;;;;;;;10.23;9.23;;;;;;;19.37;32.59;102182.84;5055831;28;20045;-83
2022/03/13 02:19:17;;;;;;;10.18;9.10;;;;;;;19.38;32.58;102181.03;5054546;28;20067;-83
2022/03/13 02:21:51;;;;;;;11.10;9.90;;;;;;;19.37;32.61;102179.31;5054907;28;20059;-83
2022/03/13 02:24:24;;;;;;;10.82;9.57;;;;;;;19.37;32.45;102174.78;5055854;28;20052;-83
2022/03/13 02:26:56;;;;;;;10.00;9.00;;;;;;;19.37;32.58;102172.09;5055418;28;20057;-83
2022/03/13 02:29:23;;;;;;;10.70;9.57;;;;;;;19.37;32.56;102174.78;5055200;28;20382;-84
2022/03/13 02:31:51;;;;;;;11.45;9.40;;;;;;;19.37;32.64;102171.25;5055054;28;20045;-84
2022/03/13 02:34:19;;;;;;;11.55;9.82;;;;;;;19.39;32.59;102166.63;5056121;28;20048;-84
2022/03/13 02:36:47;;;;;;;10.35;9.35;;;;;;;19.39;32.65;102166.63;5055300;28;20048;-83
2022/03/13 02:39:14;;;;;;;9.10;8.20;;;;;;;19.40;32.47;102171.03;5038118;28;20056;-83
2022/03/13 02:41:43;;;;;;;10.63;9.63;;;;;;;19.39;32.49;102166.63;5056950;28;20052;-84
2022/03/13 02:44:17;;;;;;;9.35;8.40;;;;;;;19.40;32.25;102173.72;5054755;28;20052;-84
2022/03/13 02:47:01;;;;;;;11.60;9.93;;;;;;;19.38;32.34;102171.13;5055691;28;20044;-83
2022/03/13 02:49:30;;;;;;;12.35;10.15;;;;;;;19.38;32.32;102164.91;5059080;28;20041;-84
2022/03/13 02:52:01;;;;;;;10.77;9.18;;;;;;;19.37;32.36;102166.72;5055852;28;20049;-84
2022/03/13 02:54:28;;;;;;;11.07;9.90;;;;;;;19.37;32.36;102163.19;5055677;28;20053;-83
2022/03/13 02:56:57;;;;;;;11.50;9.80;;;;;;;19.36;32.23;102161.44;5055181;28;20397;-84
2022/03/13 02:59:25;;;;;;;10.68;9.57;;;;;;;19.36;32.28;102158.75;5053184;28;20053;-83
2022/03/13 03:01:52;;;;;;;12.32;10.25;;;;;;;19.36;32.46;102159.63;5054143;28;20053;-84
2022/03/13 03:04:22;;;;;;;11.05;9.95;;;;;;;19.35;32.45;102154.34;5054740;28;20045;-84
2022/03/13 03:06:54;;;;;;;9.93;8.95;;;;;;;19.35;32.28;102154.34;5053294;28;20045;-84
2022/03/13 03:09:21;;;;;;;10.80;9.40;;;;;;;19.35;32.39;102160.59;5054842;28;20049;-84
2022/03/13 03:11:49;;;;;;;10.75;9.57;;;;;;;19.35;32.28;102152.53;5054736;28;20048;-83
2022/03/13 03:14:17;;;;;;;10.98;9.88;;;;;;;19.34;32.39;102155.31;5053415;28;20049;-84
2022/03/13 03:16:45;;;;;;;10.52;9.43;;;;;;;19.33;32.40;102151.78;5054344;28;20068;-84
2022/03/13 03:19:13;;;;;;;10.50;9.32;;;;;;;19.34;32.39;102158.00;5053203;28;20060;-84
2022/03/13 03:21:41;;;;;;;10.38;9.13;;;;;;;19.34;32.38;102152.63;5054949;28;20048;-84
2022/03/13 03:24:19;;;;;;;10.15;9.00;;;;;;;19.34;32.43;102152.63;5055139;28;20388;-84
2022/03/13 03:26:46;;;;;;;10.25;9.18;;;;;;;19.34;32.37;102152.63;5054998;28;20045;-84
2022/03/13 03:29:15;;;;;;;10.10;9.15;;;;;;;19.34;32.36;102158.88;5054883;28;20049;-84
2022/03/13 03:31:47;;;;;;;10.90;9.70;;;;;;;19.34;32.37;102147.28;5055286;28;20052;-84
2022/03/13 03:34:17;;;;;;;10.32;9.00;;;;;;;19.34;32.56;102156.19;5051548;28;20079;-84
2022/03/13 03:36:50;;;;;;;11.65;9.13;;;;;;;19.34;32.55;102158.00;5054832;28;20045;-85
2022/03/13 03:39:20;;;;;;;11.70;9.23;;;;;;;19.34;32.38;102158.88;5054308;28;20045;-84
2022/03/13 03:41:50;;;;;;;11.07;9.10;;;;;;;19.34;32.41;102158.88;5053216;28;20057;-85
2022/03/13 03:44:18;;;;;;;10.10;9.05;;;;;;;19.35;32.39;102165.09;5054441;28;20052;-84
2022/03/13 03:46:47;;;;;;;11.82;9.57;;;;;;;19.35;32.32;102162.41;5055339;28;20116;-84
2022/03/13 03:49:15;;;;;;;10.82;9.73;;;;;;;19.35;32.46;102157.03;5055378;28;20044;-83
2022/03/13 03:51:43;;;;;;;11.18;9.43;;;;;;;19.35;32.24;102149.00;5054416;28;20116;-83
2022/03/13 03:54:12;;;;;;;9.13;8.32;;;;;;;19.34;32.23;102148.13;5053779;28;20424;-84
2022/03/13 03:56:39;;;;;;;9.68;8.70;;;;;;;19.34;32.08;102150.81;5054025;28;20400;-85
2022/03/13 03:59:07;;;;;;;10.27;8.98;;;;;;;19.34;32.17;102152.63;5052339;28;20049;-85
2022/03/13 04:01:37;;;;;;;10.18;9.18;;;;;;;19.33;32.09;102141.03;5054847;28;20461;-85
2022/03/13 04:04:06;;;;;;;10.10;9.10;;;;;;;19.33;32.06;102145.56;5054734;28;20060;-85
2022/03/13 04:06:37;;;;;;;10.90;9.80;;;;;;;19.33;32.04;102140.19;5054053;28;20045;-83
2022/03/13 04:09:09;;;;;;;10.88;9.48;;;;;;;19.32;31.99;102147.34;5054058;28;20075;-82
2022/03/13 04:11:37;;;;;;;9.73;8.75;;;;;;;19.32;32.09;102135.75;5052637;28;20056;-83
2022/03/13 04:14:09;;;;;;;10.23;9.23;;;;;;;19.32;32.35;102135.75;5054706;28;20045;-83
2022/03/13 04:16:37;;;;;;;9.90;8.90;;;;;;;19.31;32.26;102134.03;5054007;28;20049;-83
2022/03/13 04:19:04;;;;;;;9.55;8.60;;;;;;;19.31;32.29;102131.34;5051762;28;20052;-85
2022/03/13 04:21:31;;;;;;;11.13;9.25;;;;;;;19.31;32.32;102134.03;5052836;28;20041;-84
2022/03/13 04:23:59;;;;;;;9.40;8.50;;;;;;;19.31;32.08;102128.66;5053306;28;20051;-85
2022/03/13 04:26:26;;;;;;;9.38;8.38;;;;;;;19.31;32.24;102131.34;5054349;28;20041;-83
2022/03/13 04:28:53;;;;;;;9.90;8.90;;;;;;;19.31;32.16;102131.34;5053639;28;20045;-83
2022/03/13 04:31:21;;;;;;;9.95;8.55;;;;;;;19.31;32.07;102128.66;5052952;28;20408;-82
2022/03/13 04:33:52;;;;;;;9.63;8.63;;;;;;;19.30;32.25;102137.69;5052737;28;20041;-83
2022/03/13 04:36:23;;;;;;;8.38;7.55;;;;;;;19.31;32.15;102134.03;5054126;28;20049;-83
2022/03/13 04:38:50;;;;;;;9.68;8.68;;;;;;;19.30;32.16;102127.81;5054036;28;20045;-83
2022/03/13 04:41:18;;;;;;;9.57;8.60;;;;;;;19.31;32.17;102140.25;5053392;28;20045;-84
2022/03/13 04:43:46;;;;;;;9.05;8.20;;;;;;;19.31;32.25;102140.25;5053993;28;20056;-84
2022/03/13 04:46:15;;;;;;;10.02;8.32;;;;;;;19.31;32.25;102145.63;5055566;28;20052;-84
2022/03/13 04:48:42;;;;;;;9.45;8.43;;;;;;;19.31;32.14;102140.25;5057880;28;20045;-84
2022/03/13 04:51:10;;;;;;;11.05;8.73;;;;;;;19.31;32.42;102147.47;5057684;28;20120;-83
2022/03/13 04:53:38;;;;;;;9.23;8.32;;;;;;;19.30;32.20;102146.59;5057184;28;20053;-83
2022/03/13 04:56:05;;;;;;;10.05;9.00;;;;;;;19.30;32.26;102146.59;5057125;28;20044;-83
2022/03/13 04:58:32;;;;;;;9.45;8.40;;;;;;;19.30;32.09;102141.22;5039095;28;20045;-83
2022/03/13 05:01:00;;;;;;;9.27;8.32;;;;;;;19.31;32.09;102144.78;5058170;28;20044;-83
2022/03/13 05:03:31;;;;;;;10.80;9.20;;;;;;;19.31;32.07;102150.16;5056972;28;20053;-83
2022/03/13 05:06:05;;;;;;;9.43;8.45;;;;;;;19.30;32.09;102149.28;5057054;28;20053;-84
2022/03/13 05:08:34;;;;;;;9.07;8.18;;;;;;;19.29;31.99;102150.25;5057380;28;20404;-84
2022/03/13 05:11:05;;;;;;;10.05;8.70;;;;;;;19.28;31.99;102151.19;5056074;28;20045;-84
2022/03/13 05:13:33;;;;;;;9.98;8.98;;;;;;;19.27;32.07;102144.97;5057298;28;20061;-83
2022/03/13 05:16:00;;;;;;;9.55;8.55;;;;;;;19.27;32.46;102153.03;5057002;28;20041;-86
2022/03/13 05:18:29;;;;;;;9.82;8.82;;;;;;;19.27;32.16;102161.06;5057052;28;20049;-86
2022/03/13 05:20:56;;;;;;;9.18;7.90;;;;;;;19.26;32.07;102158.50;5053994;28;20049;-85
2022/03/13 05:23:24;;;;;;;8.57;7.75;;;;;;;19.24;32.19;102163.97;5055501;28;20054;-85
2022/03/13 05:25:51;;;;;;;8.98;8.07;;;;;;;19.23;32.28;102162.25;5057026;28;20052;-83
2022/03/13 05:28:19;;;;;;;9.25;8.13;;;;;;;19.23;32.22;102164.91;5056182;28;20045;-83
2022/03/13 05:30:46;;;;;;;8.82;7.93;;;;;;;19.22;32.06;102163.22;5056070;28;20051;-83
2022/03/13 05:33:14;;;;;;;10.30;8.45;;;;;;;19.23;32.34;102161.38;5057490;28;20049;-84
2022/03/13 05:35:41;;;;;;;9.13;8.10;;;;;;;19.22;32.27;102160.53;5055728;28;20488;-84
2022/03/13 05:38:09;;;;;;;9.20;8.15;;;;;;;19.22;32.11;102168.56;5056492;28;20487;-83
2022/03/13 05:40:36;;;;;;;9.27;7.50;;;;;;;19.21;32.16;102164.19;5055493;28;20049;-84
2022/03/13 05:43:04;;;;;;;8.45;7.65;;;;;;;19.21;32.13;102168.69;5055984;28;20052;-83
2022/03/13 05:45:36;;;;;;;10.57;7.45;;;;;;;19.20;32.20;102170.50;5056725;28;20392;-83
2022/03/13 05:48:09;;;;;;;7.63;6.50;;;;;;;19.19;32.21;102174.13;5056455;28;20056;-83
2022/03/13 05:50:37;;;;;;;8.43;7.20;;;;;;;19.18;32.25;102172.41;5057186;28;20045;-83
2022/03/13 05:53:05;;;;;;;8.93;8.00;;;;;;;19.19;32.06;102175.97;5056136;28;20519;-83
2022/03/13 05:55:33;;;;;;;9.50;7.70;;;;;;;19.18;32.14;102175.09;5056090;28;20052;-83
2022/03/13 05:58:01;;;;;;;8.48;7.63;;;;;;;19.18;32.28;102169.72;5055711;28;20045;-82
2022/03/13 06:00:32;;;;;;;8.52;7.35;;;;;;;19.16;32.04;102179.72;5056400;28;20044;-82
2022/03/13 06:03:00;;;;;;;8.38;7.47;;;;;;;19.17;32.41;102185.94;5056309;28;20392;-82
2022/03/13 06:05:34;;;;;;;8.63;7.63;;;;;;;19.16;32.05;102192.25;5055800;28;20477;-82
2022/03/13 06:08:02;;;;;;;9.20;7.57;;;;;;;19.14;32.27;102200.41;5055822;28;20052;-82
2022/03/13 06:10:30;;;;;;;9.18;7.70;;;;;;;19.14;32.19;102202.25;5056069;28;20469;-84
2022/03/13 06:12:57;;;;;;;8.20;7.40;;;;;;;19.13;32.25;102203.22;5055452;28;20052;-84
2022/03/13 06:15:25;;;;;;;8.27;7.47;;;;;;;19.13;32.08;102196.03;5055347;28;20052;-86
2022/03/13 06:17:53;;;;;;;8.60;7.70;;;;;;;19.12;32.30;102197.00;5053815;28;20064;-85
2022/03/13 06:20:21;;;;;;;8.65;7.55;;;;;;;19.12;31.89;102207.72;5054674;28;20049;-84
2022/03/13 06:22:48;;;;;;;8.73;7.43;;;;;;;19.14;32.00;102205.78;5054221;28;20052;-85
2022/03/13 06:25:17;;;;;;;9.13;8.15;;;;;;;19.14;31.87;102208.47;5055654;28;20041;-84
2022/03/13 06:27:44;;;;;;;8.75;7.45;;;;;;;19.15;31.91;102210.19;5054351;28;20052;-83
2022/03/13 06:30:16;;;;;;;8.70;7.80;;;;;;;19.16;31.84;102214.63;5055503;28;20473;-83
2022/03/13 06:32:46;;;;;;;8.65;7.85;;;;;;;19.17;31.76;102220.84;5055608;28;20064;-84
2022/03/13 06:35:16;;;;;;;8.77;7.63;;;;;;;19.18;31.79;102212.69;5053621;28;20045;-83
2022/03/13 06:37:44;;;;;;;8.65;7.75;;;;;;;19.18;31.88;102214.50;5056534;28;20051;-83
2022/03/13 06:40:17;;;;;;;8.10;7.30;;;;;;;19.18;31.86;102222.56;5055107;28;20408;-84
2022/03/13 06:42:48;;;;;;;8.33;7.53;;;;;;;19.17;31.82;102210.97;5054981;28;20051;-83
2022/03/13 06:45:18;;;;;;;9.25;8.20;;;;;;;19.18;31.68;102223.44;5055585;28;20385;-84
2022/03/13 06:47:49;;;;;;;7.97;7.03;;;;;;;19.18;31.79;102227.94;5054858;28;20045;-83
2022/03/13 06:50:19;;;;;;;8.30;6.95;;;;;;;19.18;31.76;102227.94;5052806;28;20408;-82
2022/03/13 06:52:49;;;;;;;8.38;7.57;;;;;;;19.18;31.71;102227.94;5054060;28;20044;-84
2022/03/13 06:55:22;;;;;;;10.93;8.30;;;;;;;19.18;31.68;102223.44;5054097;28;20468;-84
2022/03/13 06:57:50;;;;;;;8.13;7.28;;;;;;;19.18;31.67;102233.31;5053895;28;20064;-84
2022/03/13 07:00:19;;;;;;;8.50;7.60;;;;;;;19.17;31.95;102232.44;5055111;28;20064;-85
2022/03/13 07:02:49;;;;;;;7.88;7.07;;;;;;;19.16;31.89;102237.91;5054234;28;20045;-84
2022/03/13 07:05:19;;;;;;;8.23;7.32;;;;;;;19.14;31.94;102234.47;5054997;28;20045;-84
2022/03/13 07:07:47;;;;;;;7.97;7.20;;;;;;;19.14;31.94;102239.81;5055080;28;20423;-84
2022/03/13 07:10:15;;;;;;;8.70;7.57;;;;;;;19.15;31.87;102238.88;5054662;28;20045;-83
2022/03/13 07:12:44;;;;;;;7.88;7.03;;;;;;;19.14;31.89;102238.00;5055291;28;20041;-83
2022/03/13 07:15:13;;;;;;;9.27;8.20;;;;;;;19.13;31.97;102235.44;5054134;28;20131;-83
2022/03/13 07:17:43;;;;;;;8.60;7.75;;;;;;;19.13;32.00;102240.78;5054673;28;20041;-84
2022/03/13 07:20:11;;;;;;;8.57;7.68;;;;;;;19.13;31.99;102244.34;5054482;28;20419;-84
2022/03/13 07:22:40;;;;;;;8.85;7.95;;;;;;;19.12;32.01;102250.69;5054588;28;20045;-82
2022/03/13 07:25:08;;;;;;;8.40;7.47;;;;;;;19.12;32.01;102250.69;5054057;28;20052;-82
2022/03/13 07:27:37;;;;;;;9.20;7.47;;;;;;;19.13;32.00;102248.84;5053684;28;20076;-82
2022/03/13 07:30:12;;;;;;;7.78;6.95;;;;;;;19.14;31.94;102255.94;5055532;28;20041;-82
2022/03/13 07:32:43;;;;;;;8.07;7.28;;;;;;;19.13;31.86;102256.91;5056218;28;20103;-82
2022/03/13 07:35:12;;;;;;;8.57;7.30;;;;;;;19.12;32.06;102252.47;5056017;28;20045;-82
2022/03/13 07:37:43;;;;;;;8.32;7.53;;;;;;;19.10;31.86;102252.56;5057935;28;20045;-83
2022/03/13 07:40:11;;;;;;;9.23;7.70;;;;;;;19.11;31.76;102253.44;5056509;28;20052;-82
2022/03/13 07:42:38;;;;;;;9.75;7.82;;;;;;;19.10;31.88;102252.56;5054554;28;20040;-82
2022/03/13 07:45:09;;;;;;;8.80;7.90;;;;;;;19.11;31.98;102261.50;5055605;28;20045;-81
2022/03/13 07:47:37;;;;;;;9.88;8.07;;;;;;;19.11;32.11;102259.66;5053436;28;20485;-82
2022/03/13 07:50:06;;;;;;;11.70;7.80;;;;;;;19.10;33.72;102257.09;5036534;28;20053;-81
2022/03/13 07:52:34;;;;;;;20.45;18.27;;;;;;;18.89;28.85;102264.66;5049631;28;20042;-82
2022/03/13 07:55:02;;;;;;;22.88;19.60;;;;;;;18.57;28.64;102263.88;5034475;28;20056;-82
2022/03/13 07:57:29;;;;;;;23.58;21.10;;;;;;;18.19;28.91;102265.22;5034964;28;20058;-82
2022/03/13 07:59:56;;;;;;;23.42;21.08;;;;;;;17.88;29.59;102262.56;5034241;28;20058;-82
2022/03/13 08:02:31;;;;;;;24.65;22.30;;;;;;;17.73;29.81;102267.78;5031986;28;20082;-81
2022/03/13 08:04:58;;;;;;;23.88;21.42;;;;;;;17.64;29.88;102270.13;5033496;28;20056;-82
2022/03/13 08:07:25;;;;;;;24.27;21.63;;;;;;;17.54;29.78;102267.09;5034073;28;20056;-81
2022/03/13 08:09:53;;;;;;;25.23;22.55;;;;;;;17.35;29.54;102269.06;5034104;28;20050;-81
2022/03/13 08:12:21;;;;;;;25.25;22.50;;;;;;;17.08;30.28;102272.28;5033340;28;20042;-83
2022/03/13 08:14:50;;;;;;;24.88;22.30;;;;;;;17.03;30.37;102274.34;5034834;28;20385;-83
2022/03/13 08:17:17;;;;;;;25.42;22.83;;;;;;;17.00;30.52;102263.81;5034028;28;20057;-82
2022/03/13 08:19:44;;;;;;;23.98;21.38;;;;;;;17.02;30.45;102265.47;5035963;28;20056;-82
2022/03/13 08:22:12;;;;;;;25.77;22.45;;;;;;;17.10;30.83;102270.41;5037715;28;20041;-81
2022/03/13 08:24:46;;;;;;;24.42;20.63;;;;;;;17.15;30.74;102264.81;5022510;28;20058;-81
2022/03/13 08:27:13;;;;;;;26.77;22.52;;;;;;;17.14;30.45;102263.94;5038122;28;20057;-82
2022/03/13 08:29:41;;;;;;;21.15;17.63;;;;;;;17.25;30.95;102261.53;5035901;28;20060;-82
2022/03/13 08:32:08;;;;;;;13.68;11.90;;;;;;;17.39;33.37;102260.78;5035881;28;20052;-82
2022/03/13 08:34:39;;;;;;;14.45;13.02;;;;;;;17.55;33.16;102258.13;5036642;28;20045;-82
2022/03/13 08:37:07;;;;;;;13.30;11.90;;;;;;;17.68;32.72;102255.63;5037124;28;20049;-82
2022/03/13 08:39:35;;;;;;;14.10;12.05;;;;;;;17.78;32.62;102257.75;5036583;28;20061;-81
2022/03/13 08:42:04;;;;;;;12.60;11.30;;;;;;;17.89;32.82;102256.25;5036896;28;20041;-82
2022/03/13 08:44:32;;;;;;;11.75;10.23;;;;;;;17.97;32.38;102254.00;5036278;28;20046;-81
2022/03/13 08:47:00;;;;;;;11.63;10.38;;;;;;;18.03;32.58;102259.88;5036338;28;20377;-82
2022/03/13 08:49:28;;;;;;;11.85;10.27;;;;;;;18.10;32.57;102256.81;5036460;28;20053;-83
2022/03/13 08:51:55;;;;;;;15.75;14.15;;;;;;;18.11;30.00;102259.44;5036307;28;20041;-83
2022/03/13 08:54:25;;;;;;;16.67;14.93;;;;;;;18.00;29.75;102256.50;5035136;28;20053;-82
2022/03/13 08:56:52;;;;;;;14.77;13.20;;;;;;;17.95;30.27;102256.78;5036936;28;20045;-82
2022/03/13 08:59:20;;;;;;;17.42;15.70;;;;;;;17.90;29.75;102252.59;5035218;28;20054;-82
2022/03/13 09:01:52;;;;;;;17.67;14.40;;;;;;;17.86;29.65;102256.41;5035294;28;20067;-82
2022/03/13 09:04:20;;;;;;;15.70;14.10;;;;;;;17.81;30.03;102255.81;5036172;28;20396;-82
2022/03/13 09:06:49;;;;;;;15.07;13.45;;;;;;;17.75;29.84;102249.00;5036145;28;20056;-83
2022/03/13 09:09:19;;;;;;;18.80;13.85;;;;;;;17.70;30.02;102251.03;5035940;28;20046;-83
2022/03/13 09:11:47;;;;;;;13.25;11.90;;;;;;;17.67;30.25;102246.72;5036162;28;20042;-84
2022/03/13 09:14:15;;;;;;;15.20;12.75;;;;;;;17.66;30.44;102242.31;5035639;28;20053;-84
2022/03/13 09:16:43;;;;;;;14.90;12.98;;;;;;;17.67;30.13;102245.88;5034647;28;20049;-84
2022/03/13 09:19:11;;;;;;;13.43;11.73;;;;;;;17.63;30.47;102258.56;5036155;28;20500;-84
2022/03/13 09:21:38;;;;;;;13.38;11.88;;;;;;;17.65;30.69;102255.78;5035830;28;20053;-83
2022/03/13 09:24:08;;;;;;;13.38;11.82;;;;;;;17.67;30.77;102248.53;5036121;28;20045;-83
2022/03/13 09:26:42;;;;;;;17.42;11.82;;;;;;;17.65;31.12;102243.25;5035824;28;20047;-80
2022/03/13 09:29:09;;;;;;;14.57;11.90;;;;;;;17.64;30.36;102246.88;5033845;28;20041;-83
2022/03/13 09:31:36;;;;;;;13.38;10.77;;;;;;;17.60;30.33;102248.00;5035422;28;20045;-88
2022/03/13 09:34:04;;;;;;;15.57;11.50;;;;;;;17.53;30.67;102239.44;5035510;28;20045;-87
2022/03/13 09:36:36;;;;;;;13.07;10.27;;;;;;;17.53;30.75;102243.94;5034040;28;20496;-84
2022/03/13 09:39:05;;;;;;;11.68;9.27;;;;;;;17.60;31.33;102239.97;5036128;28;20064;-85
2022/03/13 09:41:33;;;;;;;12.25;9.45;;;;;;;17.64;30.49;102229.97;5034334;28;20048;-86
2022/03/13 09:44:00;;;;;;;12.13;8.65;;;;;;;17.66;30.23;102238.75;5035340;28;20042;-85
2022/03/13 09:46:28;;;;;;;8.88;7.57;;;;;;;17.69;30.87;102228.75;5017720;28;20104;-85
2022/03/13 09:48:55;;;;;;;9.35;8.32;;;;;;;17.74;30.62;102225.78;5035441;28;20060;-84
2022/03/13 09:51:25;;;;;;;10.02;8.95;;;;;;;17.76;29.81;102229.31;5037342;28;20497;-88
2022/03/13 09:53:53;;;;;;;9.90;8.05;;;;;;;17.78;29.99;102222.91;5034406;28;20109;-86
2022/03/13 09:56:23;;;;;;;8.18;7.07;;;;;;;17.83;31.28;102219.97;5033631;28;20057;-86
2022/03/13 09:58:50;;;;;;;8.20;6.63;;;;;;;17.87;31.62;102226.88;5033889;28;20054;-86
2022/03/13 10:01:19;;;;;;;7.57;6.38;;;;;;;17.92;31.58;102218.56;5034947;28;20048;-83
2022/03/13 10:03:47;;;;;;;8.48;6.15;;;;;;;17.95;31.58;102207.69;5035340;28;20429;-84
2022/03/13 10:06:14;;;;;;;8.45;5.82;;;;;;;18.02;31.48;102215.25;5034116;28;20049;-82
2022/03/13 10:08:42;;;;;;;8.75;5.65;;;;;;;18.06;31.44;102210.56;5017034;28;20064;-82
2022/03/13 10:11:10;;;;;;;7.03;5.70;;;;;;;18.10;31.50;102213.94;5035545;28;20052;-83
2022/03/13 10:13:40;;;;;;;7.53;5.65;;;;;;;18.13;31.46;102213.75;5035273;28;20046;-85
2022/03/13 10:16:15;;;;;;;9.38;5.43;;;;;;;18.16;31.71;102213.59;5033420;28;20058;-84
2022/03/13 10:18:43;;;;;;;6.53;5.68;;;;;;;18.18;30.64;102209.00;5033925;28;20064;-81
2022/03/13 10:21:13;;;;;;;6.97;5.15;;;;;;;18.20;30.84;102209.78;5034506;28;20060;-81
2022/03/13 10:23:40;;;;;;;5.10;4.55;;;;;;;18.21;30.85;102203.44;5034035;28;20045;-80
2022/03/13 10:26:08;;;;;;;7.60;5.88;;;;;;;18.23;31.23;102204.22;5034696;28;20045;-81
2022/03/13 10:28:37;;;;;;;8.15;4.90;;;;;;;18.23;31.73;102207.78;5016048;28;20066;-81
2022/03/13 10:31:15;;;;;;;6.85;4.88;;;;;;;18.25;32.57;102199.63;5033283;28;20056;-80
2022/03/13 10:33:57;;;;;;;5.95;4.38;;;;;;;18.25;32.27;102200.50;5034385;28;20477;-80
2022/03/13 10:36:31;;;;;;;7.40;4.53;;;;;;;18.26;32.04;102194.16;5034234;28;20382;-80
2022/03/13 10:39:02;;;;;;;6.43;4.38;;;;;;;18.26;32.15;102199.53;5034341;28;20050;-80
2022/03/13 10:41:47;;;;;;;7.20;4.75;;;;;;;18.27;32.20;102195.03;5033405;28;20049;-80
2022/03/13 10:44:21;;;;;;;5.35;4.47;;;;;;;18.29;32.46;102194.00;5016175;28;20042;-81
2022/03/13 10:47:02;;;;;;;5.88;4.68;;;;;;;18.29;32.23;102191.31;5034789;28;20056;-81
2022/03/13 10:49:41;;;;;;;6.95;4.68;;;;;;;18.31;32.31;102183.19;5038803;28;20041;-81
2022/03/13 10:52:29;;;;;;;7.13;4.47;;;;;;;18.33;32.46;102188.47;5048800;28;20063;-79
2022/03/13 10:55:14;;;;;;;;;;;;;;;18.36;33.10;102196.31;5045775;28;20053;-82
2022/03/13 10:57:55;;;;;;;6.40;4.35;;;;;;;18.35;32.59;102184.75;5053711;28;19921;-81
2022/03/13 11:00:24;;;;;;;5.53;3.63;;;;;;;18.37;32.53;102181.94;5044606;28;20061;-80
2022/03/13 11:03:07;;;;;;;6.88;4.38;;;;;;;18.37;32.48;102179.28;5040684;28;20041;-81
2022/03/13 11:05:35;;;;;;;5.20;4.28;;;;;;;18.40;32.50;102192.50;5052303;28;20052;-81
2022/03/13 11:08:03;;;;;;;7.70;4.80;;;;;;;18.40;32.51;102176.41;5053232;28;20049;-80
2022/03/13 11:10:31;;;;;;;6.20;4.22;;;;;;;18.43;32.49;102181.56;5052719;28;20049;-81
2022/03/13 11:13:00;;;;;;;5.68;4.82;;;;;;;18.44;32.60;102177.94;5036096;28;20049;-82
2022/03/13 11:15:30;;;;;;;6.80;3.88;;;;;;;18.44;32.65;102172.59;5052648;28;20373;-80
2022/03/13 11:17:59;;;;;;;7.10;3.70;;;;;;;18.45;32.66;102163.59;5036860;28;20048;-82
2022/03/13 11:20:29;;;;;;;7.95;4.07;;;;;;;18.44;32.47;102162.72;5053999;28;20041;-81
2022/03/13 11:22:58;;;;;;;4.57;4.03;;;;;;;18.46;32.52;102160.78;5052817;28;20504;-82
2022/03/13 11:25:27;;;;;;;5.03;3.70;;;;;;;18.47;32.73;102164.34;5052066;28;20057;-82
2022/03/13 11:27:55;;;;;;;5.40;3.88;;;;;;;18.47;32.67;102158.97;5054595;28;20045;-82
2022/03/13 11:30:36;;;;;;;5.20;4.45;;;;;;;18.46;32.40;102147.38;5053705;28;20052;-82